sensor_id;sensor_type;location;lat;lon;timestamp;P1;durP1;ratioP1;P2;durP2;ratioP2
11344;SDS011;5727;42.600;23.028;2023-05-16T00:01:03;18.53;;;14.20;;
11344;SDS011;5727;42.600;23.028;2023-05-16T00:03:30;19.60;;;14.00;;
11344;SDS011;5727;42.600;23.028;2023-05-16T00:05:58;20.07;;;14.57;;
11344;SDS011;5727;42.600;23.028;2023-05-16T00:08:26;29.50;;;17.03;;
11344;SDS011;5727;42.600;23.028;2023-05-16T00:10:53;24.23;;;16.30;;
11344;SDS011;5727;42.600;23.028;2023-05-16T00:13:21;19.80;;;13.87;;
11344;SDS011;5727;42.600;23.028;2023-05-16T00:15:50;24.87;;;15.57;;
11344;SDS011;5727;42.600;23.028;2023-05-16T00:18:17;21.70;;;14.93;;
11344;SDS011;5727;42.600;23.028;2023-05-16T00:20:46;19.23;;;14.43;;
11344;SDS011;5727;42.600;23.028;2023-05-16T00:23:13;21.83;;;13.87;;
11344;SDS011;5727;42.600;23.028;2023-05-16T00:25:41;19.40;;;12.40;;
11344;SDS011;5727;42.600;23.028;2023-05-16T00:28:08;18.60;;;11.90;;
11344;SDS011;5727;42.600;23.028;2023-05-16T00:30:38;18.43;;;14.20;;
11344;SDS011;5727;42.600;23.028;2023-05-16T00:33:05;17.20;;;13.13;;
11344;SDS011;5727;42.600;23.028;2023-05-16T00:35:32;20.30;;;13.40;;
11344;SDS011;5727;42.600;23.028;2023-05-16T00:37:59;18.40;;;13.07;;
11344;SDS011;5727;42.600;23.028;2023-05-16T00:40:26;18.63;;;13.40;;
11344;SDS011;5727;42.600;23.028;2023-05-16T00:42:53;18.83;;;13.33;;
11344;SDS011;5727;42.600;23.028;2023-05-16T00:45:19;19.87;;;13.93;;
11344;SDS011;5727;42.600;23.028;2023-05-16T00:47:47;21.23;;;13.90;;
11344;SDS011;5727;42.600;23.028;2023-05-16T00:50:15;18.00;;;13.03;;
11344;SDS011;5727;42.600;23.028;2023-05-16T00:52:42;17.17;;;13.17;;
11344;SDS011;5727;42.600;23.028;2023-05-16T00:55:09;17.97;;;14.40;;
11344;SDS011;5727;42.600;23.028;2023-05-16T00:57:36;21.07;;;13.50;;
11344;SDS011;5727;42.600;23.028;2023-05-16T01:00:03;19.00;;;13.93;;
11344;SDS011;5727;42.600;23.028;2023-05-16T01:02:33;19.53;;;14.50;;
11344;SDS011;5727;42.600;23.028;2023-05-16T01:05:01;18.43;;;14.77;;
11344;SDS011;5727;42.600;23.028;2023-05-16T01:07:29;19.47;;;15.13;;
11344;SDS011;5727;42.600;23.028;2023-05-16T01:09:56;23.87;;;14.50;;
11344;SDS011;5727;42.600;23.028;2023-05-16T01:12:26;21.27;;;14.87;;
11344;SDS011;5727;42.600;23.028;2023-05-16T01:14:59;19.50;;;15.83;;
11344;SDS011;5727;42.600;23.028;2023-05-16T01:17:37;20.70;;;14.70;;
11344;SDS011;5727;42.600;23.028;2023-05-16T01:20:18;21.00;;;14.20;;
11344;SDS011;5727;42.600;23.028;2023-05-16T01:23:02;21.37;;;15.37;;
11344;SDS011;5727;42.600;23.028;2023-05-16T01:25:37;21.27;;;14.87;;
11344;SDS011;5727;42.600;23.028;2023-05-16T01:28:13;18.87;;;13.97;;
11344;SDS011;5727;42.600;23.028;2023-05-16T01:30:42;18.77;;;13.67;;
11344;SDS011;5727;42.600;23.028;2023-05-16T01:33:09;17.20;;;13.03;;
11344;SDS011;5727;42.600;23.028;2023-05-16T01:35:39;21.73;;;13.47;;
11344;SDS011;5727;42.600;23.028;2023-05-16T01:38:17;18.87;;;12.87;;
11344;SDS011;5727;42.600;23.028;2023-05-16T01:40:52;18.20;;;12.90;;
11344;SDS011;5727;42.600;23.028;2023-05-16T01:43:28;19.43;;;13.33;;
11344;SDS011;5727;42.600;23.028;2023-05-16T01:45:59;19.77;;;13.03;;
11344;SDS011;5727;42.600;23.028;2023-05-16T01:48:32;18.67;;;14.17;;
11344;SDS011;5727;42.600;23.028;2023-05-16T01:51:04;17.43;;;14.60;;
11344;SDS011;5727;42.600;23.028;2023-05-16T01:53:35;19.73;;;14.43;;
11344;SDS011;5727;42.600;23.028;2023-05-16T01:56:04;20.00;;;13.10;;
11344;SDS011;5727;42.600;23.028;2023-05-16T01:58:37;15.83;;;13.53;;
11344;SDS011;5727;42.600;23.028;2023-05-16T02:01:04;19.23;;;14.57;;
11344;SDS011;5727;42.600;23.028;2023-05-16T02:03:31;18.70;;;14.90;;
11344;SDS011;5727;42.600;23.028;2023-05-16T02:05:59;22.50;;;14.57;;
11344;SDS011;5727;42.600;23.028;2023-05-16T02:08:26;19.63;;;14.13;;
11344;SDS011;5727;42.600;23.028;2023-05-16T02:10:53;23.47;;;14.53;;
11344;SDS011;5727;42.600;23.028;2023-05-16T02:13:20;21.40;;;13.73;;
11344;SDS011;5727;42.600;23.028;2023-05-16T02:15:48;17.67;;;13.50;;
11344;SDS011;5727;42.600;23.028;2023-05-16T02:18:15;17.77;;;13.47;;
11344;SDS011;5727;42.600;23.028;2023-05-16T02:20:43;18.60;;;12.97;;
11344;SDS011;5727;42.600;23.028;2023-05-16T02:23:09;19.23;;;14.03;;
11344;SDS011;5727;42.600;23.028;2023-05-16T02:25:36;16.77;;;13.00;;
11344;SDS011;5727;42.600;23.028;2023-05-16T02:28:03;19.90;;;12.77;;
11344;SDS011;5727;42.600;23.028;2023-05-16T02:30:30;20.97;;;14.00;;
11344;SDS011;5727;42.600;23.028;2023-05-16T02:32:59;19.47;;;12.87;;
11344;SDS011;5727;42.600;23.028;2023-05-16T02:35:25;19.63;;;14.03;;
11344;SDS011;5727;42.600;23.028;2023-05-16T02:37:52;21.27;;;13.13;;
11344;SDS011;5727;42.600;23.028;2023-05-16T02:40:19;19.40;;;13.63;;
11344;SDS011;5727;42.600;23.028;2023-05-16T02:42:46;23.00;;;13.67;;
11344;SDS011;5727;42.600;23.028;2023-05-16T02:45:13;20.70;;;13.50;;
11344;SDS011;5727;42.600;23.028;2023-05-16T02:47:39;19.47;;;13.43;;
11344;SDS011;5727;42.600;23.028;2023-05-16T02:50:08;19.23;;;14.60;;
11344;SDS011;5727;42.600;23.028;2023-05-16T02:52:35;20.80;;;14.63;;
11344;SDS011;5727;42.600;23.028;2023-05-16T02:55:02;19.73;;;13.00;;
11344;SDS011;5727;42.600;23.028;2023-05-16T02:57:30;20.67;;;15.13;;
11344;SDS011;5727;42.600;23.028;2023-05-16T02:59:57;19.27;;;14.57;;
11344;SDS011;5727;42.600;23.028;2023-05-16T03:02:24;23.10;;;15.27;;
11344;SDS011;5727;42.600;23.028;2023-05-16T03:04:50;18.77;;;15.10;;
11344;SDS011;5727;42.600;23.028;2023-05-16T03:07:18;23.57;;;15.03;;
11344;SDS011;5727;42.600;23.028;2023-05-16T03:09:45;23.67;;;15.30;;
11344;SDS011;5727;42.600;23.028;2023-05-16T03:12:12;25.07;;;15.23;;
11344;SDS011;5727;42.600;23.028;2023-05-16T03:14:38;23.10;;;14.63;;
11344;SDS011;5727;42.600;23.028;2023-05-16T03:17:05;23.87;;;16.00;;
11344;SDS011;5727;42.600;23.028;2023-05-16T03:19:31;24.07;;;15.70;;
11344;SDS011;5727;42.600;23.028;2023-05-16T03:21:58;23.00;;;15.57;;
11344;SDS011;5727;42.600;23.028;2023-05-16T03:24:27;26.50;;;16.23;;
11344;SDS011;5727;42.600;23.028;2023-05-16T03:26:53;26.23;;;16.10;;
11344;SDS011;5727;42.600;23.028;2023-05-16T03:32:05;30.80;;;16.17;;
11344;SDS011;5727;42.600;23.028;2023-05-16T03:34:32;20.70;;;15.77;;
11344;SDS011;5727;42.600;23.028;2023-05-16T03:36:59;25.37;;;16.07;;
11344;SDS011;5727;42.600;23.028;2023-05-16T03:39:27;21.33;;;15.00;;
11344;SDS011;5727;42.600;23.028;2023-05-16T03:41:53;23.73;;;16.03;;
11344;SDS011;5727;42.600;23.028;2023-05-16T03:44:21;29.13;;;17.07;;
11344;SDS011;5727;42.600;23.028;2023-05-16T03:46:48;24.03;;;16.20;;
11344;SDS011;5727;42.600;23.028;2023-05-16T03:49:16;26.30;;;16.13;;
11344;SDS011;5727;42.600;23.028;2023-05-16T03:51:45;21.63;;;15.80;;
11344;SDS011;5727;42.600;23.028;2023-05-16T03:54:11;22.87;;;16.53;;
11344;SDS011;5727;42.600;23.028;2023-05-16T03:56:40;24.00;;;16.13;;
11344;SDS011;5727;42.600;23.028;2023-05-16T03:59:07;25.17;;;16.63;;
11344;SDS011;5727;42.600;23.028;2023-05-16T04:01:34;27.00;;;17.50;;
11344;SDS011;5727;42.600;23.028;2023-05-16T04:04:00;27.13;;;18.57;;
11344;SDS011;5727;42.600;23.028;2023-05-16T04:06:27;21.63;;;15.80;;
11344;SDS011;5727;42.600;23.028;2023-05-16T04:08:54;24.60;;;16.73;;
11344;SDS011;5727;42.600;23.028;2023-05-16T04:11:21;23.33;;;16.60;;
11344;SDS011;5727;42.600;23.028;2023-05-16T04:13:49;32.53;;;17.17;;
11344;SDS011;5727;42.600;23.028;2023-05-16T04:16:16;27.30;;;18.50;;
11344;SDS011;5727;42.600;23.028;2023-05-16T04:18:42;23.97;;;17.63;;
11344;SDS011;5727;42.600;23.028;2023-05-16T04:21:09;23.17;;;16.07;;
11344;SDS011;5727;42.600;23.028;2023-05-16T04:23:39;21.33;;;15.67;;
11344;SDS011;5727;42.600;23.028;2023-05-16T04:26:05;19.77;;;14.97;;
11344;SDS011;5727;42.600;23.028;2023-05-16T04:28:32;19.63;;;14.30;;
11344;SDS011;5727;42.600;23.028;2023-05-16T04:31:01;26.73;;;14.67;;
11344;SDS011;5727;42.600;23.028;2023-05-16T04:33:28;23.07;;;14.37;;
11344;SDS011;5727;42.600;23.028;2023-05-16T04:35:54;21.93;;;14.90;;
11344;SDS011;5727;42.600;23.028;2023-05-16T04:38:22;16.77;;;14.37;;
11344;SDS011;5727;42.600;23.028;2023-05-16T04:40:49;21.30;;;15.93;;
11344;SDS011;5727;42.600;23.028;2023-05-16T04:43:16;21.67;;;15.10;;
11344;SDS011;5727;42.600;23.028;2023-05-16T04:45:43;21.93;;;15.20;;
11344;SDS011;5727;42.600;23.028;2023-05-16T04:48:12;23.27;;;15.60;;
11344;SDS011;5727;42.600;23.028;2023-05-16T04:50:39;24.70;;;15.73;;
11344;SDS011;5727;42.600;23.028;2023-05-16T04:53:06;25.40;;;16.73;;
11344;SDS011;5727;42.600;23.028;2023-05-16T04:55:32;22.77;;;16.70;;
11344;SDS011;5727;42.600;23.028;2023-05-16T04:57:59;25.40;;;17.10;;
11344;SDS011;5727;42.600;23.028;2023-05-16T05:00:26;20.57;;;15.97;;
11344;SDS011;5727;42.600;23.028;2023-05-16T05:02:52;22.33;;;16.23;;
11344;SDS011;5727;42.600;23.028;2023-05-16T05:05:20;26.63;;;16.57;;
11344;SDS011;5727;42.600;23.028;2023-05-16T05:07:47;23.50;;;15.50;;
11344;SDS011;5727;42.600;23.028;2023-05-16T05:10:14;25.33;;;15.77;;
11344;SDS011;5727;42.600;23.028;2023-05-16T05:12:41;25.83;;;15.97;;
11344;SDS011;5727;42.600;23.028;2023-05-16T05:15:08;27.70;;;15.50;;
11344;SDS011;5727;42.600;23.028;2023-05-16T05:17:34;24.27;;;16.63;;
11344;SDS011;5727;42.600;23.028;2023-05-16T05:20:02;21.47;;;15.87;;
11344;SDS011;5727;42.600;23.028;2023-05-16T05:22:33;23.00;;;14.97;;
11344;SDS011;5727;42.600;23.028;2023-05-16T05:24:59;23.77;;;16.03;;
11344;SDS011;5727;42.600;23.028;2023-05-16T05:27:26;20.47;;;15.00;;
11344;SDS011;5727;42.600;23.028;2023-05-16T05:29:53;22.57;;;17.50;;
11344;SDS011;5727;42.600;23.028;2023-05-16T05:32:20;27.40;;;19.43;;
11344;SDS011;5727;42.600;23.028;2023-05-16T05:34:46;28.70;;;20.10;;
11344;SDS011;5727;42.600;23.028;2023-05-16T05:37:13;26.20;;;20.10;;
11344;SDS011;5727;42.600;23.028;2023-05-16T05:42:09;23.60;;;17.10;;
11344;SDS011;5727;42.600;23.028;2023-05-16T05:44:36;23.30;;;16.53;;
11344;SDS011;5727;42.600;23.028;2023-05-16T05:47:03;24.63;;;17.00;;
11344;SDS011;5727;42.600;23.028;2023-05-16T05:49:30;23.17;;;17.17;;
11344;SDS011;5727;42.600;23.028;2023-05-16T05:51:57;22.57;;;17.10;;
11344;SDS011;5727;42.600;23.028;2023-05-16T05:54:24;19.93;;;16.93;;
11344;SDS011;5727;42.600;23.028;2023-05-16T05:56:52;23.67;;;17.80;;
11344;SDS011;5727;42.600;23.028;2023-05-16T05:59:19;24.20;;;17.63;;
11344;SDS011;5727;42.600;23.028;2023-05-16T06:01:45;23.00;;;17.30;;
11344;SDS011;5727;42.600;23.028;2023-05-16T06:04:16;25.80;;;18.27;;
11344;SDS011;5727;42.600;23.028;2023-05-16T06:06:43;24.20;;;16.23;;
11344;SDS011;5727;42.600;23.028;2023-05-16T06:09:10;30.10;;;18.27;;
11344;SDS011;5727;42.600;23.028;2023-05-16T06:11:37;21.80;;;17.07;;
11344;SDS011;5727;42.600;23.028;2023-05-16T06:14:06;20.40;;;17.13;;
11344;SDS011;5727;42.600;23.028;2023-05-16T06:16:32;24.73;;;17.27;;
11344;SDS011;5727;42.600;23.028;2023-05-16T06:18:59;19.30;;;15.37;;
11344;SDS011;5727;42.600;23.028;2023-05-16T06:21:26;22.70;;;17.03;;
11344;SDS011;5727;42.600;23.028;2023-05-16T06:23:53;20.60;;;15.37;;
11344;SDS011;5727;42.600;23.028;2023-05-16T06:26:19;24.27;;;15.90;;
11344;SDS011;5727;42.600;23.028;2023-05-16T06:28:46;23.70;;;17.43;;
11344;SDS011;5727;42.600;23.028;2023-05-16T06:31:15;27.83;;;17.90;;
11344;SDS011;5727;42.600;23.028;2023-05-16T06:33:41;25.73;;;17.27;;
11344;SDS011;5727;42.600;23.028;2023-05-16T06:36:08;29.63;;;18.77;;
11344;SDS011;5727;42.600;23.028;2023-05-16T06:38:35;25.30;;;18.13;;
11344;SDS011;5727;42.600;23.028;2023-05-16T06:41:02;30.23;;;19.10;;
11344;SDS011;5727;42.600;23.028;2023-05-16T06:43:28;28.43;;;18.97;;
11344;SDS011;5727;42.600;23.028;2023-05-16T06:45:55;24.80;;;18.20;;
11344;SDS011;5727;42.600;23.028;2023-05-16T06:48:23;29.87;;;20.30;;
11344;SDS011;5727;42.600;23.028;2023-05-16T06:50:50;27.07;;;17.13;;
11344;SDS011;5727;42.600;23.028;2023-05-16T06:53:17;33.37;;;18.33;;
11344;SDS011;5727;42.600;23.028;2023-05-16T06:55:43;25.70;;;18.73;;
11344;SDS011;5727;42.600;23.028;2023-05-16T06:58:10;24.47;;;18.67;;
11344;SDS011;5727;42.600;23.028;2023-05-16T07:00:37;26.90;;;17.17;;
11344;SDS011;5727;42.600;23.028;2023-05-16T07:03:04;27.40;;;19.20;;
11344;SDS011;5727;42.600;23.028;2023-05-16T07:05:32;26.37;;;18.10;;
11344;SDS011;5727;42.600;23.028;2023-05-16T07:07:59;24.73;;;18.07;;
11344;SDS011;5727;42.600;23.028;2023-05-16T07:10:26;24.10;;;19.20;;
11344;SDS011;5727;42.600;23.028;2023-05-16T07:12:53;25.07;;;18.17;;
11344;SDS011;5727;42.600;23.028;2023-05-16T07:15:20;28.57;;;18.97;;
11344;SDS011;5727;42.600;23.028;2023-05-16T07:17:47;30.03;;;18.57;;
11344;SDS011;5727;42.600;23.028;2023-05-16T07:20:14;25.20;;;18.13;;
11344;SDS011;5727;42.600;23.028;2023-05-16T07:22:42;26.87;;;18.80;;
11344;SDS011;5727;42.600;23.028;2023-05-16T07:25:09;20.27;;;16.00;;
11344;SDS011;5727;42.600;23.028;2023-05-16T07:27:37;21.83;;;15.77;;
11344;SDS011;5727;42.600;23.028;2023-05-16T07:30:05;20.93;;;15.90;;
11344;SDS011;5727;42.600;23.028;2023-05-16T07:32:33;23.60;;;16.83;;
11344;SDS011;5727;42.600;23.028;2023-05-16T07:35:00;24.43;;;17.63;;
11344;SDS011;5727;42.600;23.028;2023-05-16T07:37:26;24.57;;;16.30;;
11344;SDS011;5727;42.600;23.028;2023-05-16T07:39:54;19.33;;;15.87;;
11344;SDS011;5727;42.600;23.028;2023-05-16T07:42:21;23.70;;;16.37;;
11344;SDS011;5727;42.600;23.028;2023-05-16T07:44:48;24.43;;;17.37;;
11344;SDS011;5727;42.600;23.028;2023-05-16T07:47:15;22.13;;;17.07;;
11344;SDS011;5727;42.600;23.028;2023-05-16T07:49:41;26.17;;;16.93;;
11344;SDS011;5727;42.600;23.028;2023-05-16T07:52:08;23.33;;;17.03;;
11344;SDS011;5727;42.600;23.028;2023-05-16T07:54:35;22.63;;;16.73;;
11344;SDS011;5727;42.600;23.028;2023-05-16T07:57:03;19.00;;;15.27;;
11344;SDS011;5727;42.600;23.028;2023-05-16T07:59:30;21.70;;;15.33;;
11344;SDS011;5727;42.600;23.028;2023-05-16T08:01:57;23.20;;;16.13;;
11344;SDS011;5727;42.600;23.028;2023-05-16T08:04:24;23.07;;;16.53;;
11344;SDS011;5727;42.600;23.028;2023-05-16T08:06:50;25.83;;;15.70;;
11344;SDS011;5727;42.600;23.028;2023-05-16T08:09:17;25.83;;;16.57;;
11344;SDS011;5727;42.600;23.028;2023-05-16T08:11:44;22.73;;;15.17;;
11344;SDS011;5727;42.600;23.028;2023-05-16T08:14:12;22.97;;;15.50;;
11344;SDS011;5727;42.600;23.028;2023-05-16T08:16:39;20.83;;;15.67;;
11344;SDS011;5727;42.600;23.028;2023-05-16T08:19:06;23.27;;;14.77;;
11344;SDS011;5727;42.600;23.028;2023-05-16T08:21:32;23.00;;;15.23;;
11344;SDS011;5727;42.600;23.028;2023-05-16T08:23:59;23.50;;;15.77;;
11344;SDS011;5727;42.600;23.028;2023-05-16T08:26:26;31.10;;;16.20;;
11344;SDS011;5727;42.600;23.028;2023-05-16T08:28:52;22.67;;;15.37;;
11344;SDS011;5727;42.600;23.028;2023-05-16T08:31:20;19.40;;;14.23;;
11344;SDS011;5727;42.600;23.028;2023-05-16T08:33:47;19.67;;;13.57;;
11344;SDS011;5727;42.600;23.028;2023-05-16T08:36:14;15.57;;;11.83;;
11344;SDS011;5727;42.600;23.028;2023-05-16T08:38:43;21.53;;;11.77;;
11344;SDS011;5727;42.600;23.028;2023-05-16T08:41:10;17.33;;;11.87;;
11344;SDS011;5727;42.600;23.028;2023-05-16T08:43:37;20.13;;;12.30;;
11344;SDS011;5727;42.600;23.028;2023-05-16T08:46:05;21.03;;;11.30;;
11344;SDS011;5727;42.600;23.028;2023-05-16T08:48:33;17.33;;;11.00;;
11344;SDS011;5727;42.600;23.028;2023-05-16T08:51:02;16.13;;;10.77;;
11344;SDS011;5727;42.600;23.028;2023-05-16T08:53:33;20.07;;;11.80;;
11344;SDS011;5727;42.600;23.028;2023-05-16T08:56:05;19.87;;;12.50;;
11344;SDS011;5727;42.600;23.028;2023-05-16T08:58:34;19.50;;;11.97;;
11344;SDS011;5727;42.600;23.028;2023-05-16T09:01:03;20.83;;;11.93;;
11344;SDS011;5727;42.600;23.028;2023-05-16T09:03:34;20.30;;;12.63;;
11344;SDS011;5727;42.600;23.028;2023-05-16T09:06:02;24.07;;;13.17;;
11344;SDS011;5727;42.600;23.028;2023-05-16T09:08:30;14.43;;;10.67;;
11344;SDS011;5727;42.600;23.028;2023-05-16T09:10:57;16.73;;;11.30;;
11344;SDS011;5727;42.600;23.028;2023-05-16T09:13:24;14.47;;;11.23;;
11344;SDS011;5727;42.600;23.028;2023-05-16T09:18:38;16.80;;;11.43;;
11344;SDS011;5727;42.600;23.028;2023-05-16T09:21:05;17.33;;;10.73;;
11344;SDS011;5727;42.600;23.028;2023-05-16T09:23:32;16.37;;;10.57;;
11344;SDS011;5727;42.600;23.028;2023-05-16T09:25:59;17.20;;;10.57;;
11344;SDS011;5727;42.600;23.028;2023-05-16T09:28:26;17.37;;;11.10;;
11344;SDS011;5727;42.600;23.028;2023-05-16T09:30:53;22.00;;;11.07;;
11344;SDS011;5727;42.600;23.028;2023-05-16T09:33:23;17.93;;;10.33;;
11344;SDS011;5727;42.600;23.028;2023-05-16T09:35:55;14.03;;;10.57;;
11344;SDS011;5727;42.600;23.028;2023-05-16T09:38:22;16.00;;;11.30;;
11344;SDS011;5727;42.600;23.028;2023-05-16T09:40:50;12.83;;;10.80;;
11344;SDS011;5727;42.600;23.028;2023-05-16T09:43:17;14.77;;;10.20;;
11344;SDS011;5727;42.600;23.028;2023-05-16T09:45:47;17.93;;;10.30;;
11344;SDS011;5727;42.600;23.028;2023-05-16T09:48:14;11.30;;;8.63;;
11344;SDS011;5727;42.600;23.028;2023-05-16T09:50:45;16.70;;;9.87;;
11344;SDS011;5727;42.600;23.028;2023-05-16T09:53:15;15.27;;;9.93;;
11344;SDS011;5727;42.600;23.028;2023-05-16T09:55:42;16.23;;;9.80;;
11344;SDS011;5727;42.600;23.028;2023-05-16T09:58:08;15.90;;;10.47;;
11344;SDS011;5727;42.600;23.028;2023-05-16T10:00:35;15.37;;;10.30;;
11344;SDS011;5727;42.600;23.028;2023-05-16T10:03:06;17.37;;;9.83;;
11344;SDS011;5727;42.600;23.028;2023-05-16T10:05:33;16.00;;;9.83;;
11344;SDS011;5727;42.600;23.028;2023-05-16T10:08:02;13.30;;;10.13;;
11344;SDS011;5727;42.600;23.028;2023-05-16T10:10:31;17.00;;;9.47;;
11344;SDS011;5727;42.600;23.028;2023-05-16T10:13:02;18.03;;;10.00;;
11344;SDS011;5727;42.600;23.028;2023-05-16T10:15:31;13.50;;;9.60;;
11344;SDS011;5727;42.600;23.028;2023-05-16T10:17:58;15.13;;;9.43;;
11344;SDS011;5727;42.600;23.028;2023-05-16T10:20:25;15.57;;;8.20;;
11344;SDS011;5727;42.600;23.028;2023-05-16T10:22:52;16.10;;;9.23;;
11344;SDS011;5727;42.600;23.028;2023-05-16T10:25:23;13.60;;;9.33;;
11344;SDS011;5727;42.600;23.028;2023-05-16T10:27:55;14.53;;;8.80;;
11344;SDS011;5727;42.600;23.028;2023-05-16T10:30:23;14.87;;;8.70;;
11344;SDS011;5727;42.600;23.028;2023-05-16T10:32:51;17.90;;;9.23;;
11344;SDS011;5727;42.600;23.028;2023-05-16T10:35:18;16.30;;;9.80;;
11344;SDS011;5727;42.600;23.028;2023-05-16T10:37:45;15.13;;;9.40;;
11344;SDS011;5727;42.600;23.028;2023-05-16T10:40:13;15.43;;;8.53;;
11344;SDS011;5727;42.600;23.028;2023-05-16T10:42:43;15.90;;;9.03;;
11344;SDS011;5727;42.600;23.028;2023-05-16T10:45:21;11.70;;;7.60;;
11344;SDS011;5727;42.600;23.028;2023-05-16T10:47:52;14.43;;;7.50;;
11344;SDS011;5727;42.600;23.028;2023-05-16T10:50:33;12.93;;;8.63;;
11344;SDS011;5727;42.600;23.028;2023-05-16T10:53:11;17.53;;;8.20;;
11344;SDS011;5727;42.600;23.028;2023-05-16T10:55:48;12.23;;;8.13;;
11344;SDS011;5727;42.600;23.028;2023-05-16T10:58:42;13.13;;;9.00;;
11344;SDS011;5727;42.600;23.028;2023-05-16T11:01:15;13.27;;;8.57;;
11344;SDS011;5727;42.600;23.028;2023-05-16T11:04:02;15.17;;;9.10;;
11344;SDS011;5727;42.600;23.028;2023-05-16T11:06:31;16.93;;;9.27;;
11344;SDS011;5727;42.600;23.028;2023-05-16T11:09:16;14.63;;;8.40;;
11344;SDS011;5727;42.600;23.028;2023-05-16T11:11:46;12.10;;;7.90;;
11344;SDS011;5727;42.600;23.028;2023-05-16T11:14:19;11.83;;;8.43;;
11344;SDS011;5727;42.600;23.028;2023-05-16T11:16:49;16.17;;;9.10;;
11344;SDS011;5727;42.600;23.028;2023-05-16T11:19:32;12.20;;;8.10;;
11344;SDS011;5727;42.600;23.028;2023-05-16T11:22:04;14.93;;;8.73;;
11344;SDS011;5727;42.600;23.028;2023-05-16T11:24:32;11.57;;;7.50;;
11344;SDS011;5727;42.600;23.028;2023-05-16T11:27:00;11.80;;;8.50;;
11344;SDS011;5727;42.600;23.028;2023-05-16T11:29:28;19.87;;;10.30;;
11344;SDS011;5727;42.600;23.028;2023-05-16T11:31:59;14.47;;;9.40;;
11344;SDS011;5727;42.600;23.028;2023-05-16T11:34:26;11.57;;;8.43;;
11344;SDS011;5727;42.600;23.028;2023-05-16T11:36:53;10.90;;;8.43;;
11344;SDS011;5727;42.600;23.028;2023-05-16T11:39:20;10.63;;;9.00;;
11344;SDS011;5727;42.600;23.028;2023-05-16T11:41:48;15.57;;;9.83;;
11344;SDS011;5727;42.600;23.028;2023-05-16T11:44:15;15.43;;;8.80;;
11344;SDS011;5727;42.600;23.028;2023-05-16T11:46:42;12.90;;;8.67;;
11344;SDS011;5727;42.600;23.028;2023-05-16T11:49:11;14.07;;;8.83;;
11344;SDS011;5727;42.600;23.028;2023-05-16T11:51:38;16.30;;;9.37;;
11344;SDS011;5727;42.600;23.028;2023-05-16T11:54:06;13.50;;;8.80;;
11344;SDS011;5727;42.600;23.028;2023-05-16T11:56:34;14.30;;;9.20;;
11344;SDS011;5727;42.600;23.028;2023-05-16T11:59:02;16.17;;;9.73;;
11344;SDS011;5727;42.600;23.028;2023-05-16T12:01:32;13.87;;;8.70;;
11344;SDS011;5727;42.600;23.028;2023-05-16T12:03:59;14.67;;;8.67;;
11344;SDS011;5727;42.600;23.028;2023-05-16T12:06:27;12.50;;;8.77;;
11344;SDS011;5727;42.600;23.028;2023-05-16T12:08:55;15.53;;;8.93;;
11344;SDS011;5727;42.600;23.028;2023-05-16T12:11:22;12.27;;;8.40;;
11344;SDS011;5727;42.600;23.028;2023-05-16T12:13:49;17.27;;;9.33;;
11344;SDS011;5727;42.600;23.028;2023-05-16T12:16:17;17.30;;;9.57;;
11344;SDS011;5727;42.600;23.028;2023-05-16T12:18:44;11.30;;;9.00;;
11344;SDS011;5727;42.600;23.028;2023-05-16T12:21:11;12.67;;;8.47;;
11344;SDS011;5727;42.600;23.028;2023-05-16T12:23:39;15.87;;;9.13;;
11344;SDS011;5727;42.600;23.028;2023-05-16T12:26:07;18.33;;;10.47;;
11344;SDS011;5727;42.600;23.028;2023-05-16T12:28:34;18.17;;;10.40;;
11344;SDS011;5727;42.600;23.028;2023-05-16T12:31:03;15.60;;;9.70;;
11344;SDS011;5727;42.600;23.028;2023-05-16T12:33:39;24.60;;;11.13;;
11344;SDS011;5727;42.600;23.028;2023-05-16T12:36:11;16.60;;;10.17;;
11344;SDS011;5727;42.600;23.028;2023-05-16T12:38:39;17.07;;;12.00;;
11344;SDS011;5727;42.600;23.028;2023-05-16T12:41:06;17.63;;;11.33;;
11344;SDS011;5727;42.600;23.028;2023-05-16T12:43:34;18.77;;;12.33;;
11344;SDS011;5727;42.600;23.028;2023-05-16T12:46:00;16.20;;;11.70;;
11344;SDS011;5727;42.600;23.028;2023-05-16T12:48:30;15.60;;;11.23;;
11344;SDS011;5727;42.600;23.028;2023-05-16T12:51:07;13.80;;;8.00;;
11344;SDS011;5727;42.600;23.028;2023-05-16T12:53:41;13.47;;;8.47;;
11344;SDS011;5727;42.600;23.028;2023-05-16T12:56:09;16.10;;;8.47;;
11344;SDS011;5727;42.600;23.028;2023-05-16T12:58:36;11.30;;;6.83;;
11344;SDS011;5727;42.600;23.028;2023-05-16T13:01:03;11.50;;;7.23;;
11344;SDS011;5727;42.600;23.028;2023-05-16T13:03:30;16.30;;;7.20;;
11344;SDS011;5727;42.600;23.028;2023-05-16T13:05:56;9.63;;;6.23;;
11344;SDS011;5727;42.600;23.028;2023-05-16T13:08:24;11.40;;;6.23;;
11344;SDS011;5727;42.600;23.028;2023-05-16T13:10:52;10.13;;;6.03;;
11344;SDS011;5727;42.600;23.028;2023-05-16T13:13:19;11.53;;;5.87;;
11344;SDS011;5727;42.600;23.028;2023-05-16T13:15:46;10.43;;;5.43;;
11344;SDS011;5727;42.600;23.028;2023-05-16T13:18:13;11.63;;;6.10;;
11344;SDS011;5727;42.600;23.028;2023-05-16T13:20:39;10.60;;;6.10;;
11344;SDS011;5727;42.600;23.028;2023-05-16T13:23:06;14.03;;;5.57;;
11344;SDS011;5727;42.600;23.028;2023-05-16T13:25:33;11.00;;;5.40;;
11344;SDS011;5727;42.600;23.028;2023-05-16T13:28:01;16.70;;;6.20;;
11344;SDS011;5727;42.600;23.028;2023-05-16T13:30:28;10.33;;;5.83;;
11344;SDS011;5727;42.600;23.028;2023-05-16T13:32:56;14.03;;;5.63;;
11344;SDS011;5727;42.600;23.028;2023-05-16T13:35:23;13.07;;;5.47;;
11344;SDS011;5727;42.600;23.028;2023-05-16T13:37:50;13.67;;;5.53;;
11344;SDS011;5727;42.600;23.028;2023-05-16T13:40:17;16.30;;;5.73;;
11344;SDS011;5727;42.600;23.028;2023-05-16T13:42:43;11.50;;;5.60;;
11344;SDS011;5727;42.600;23.028;2023-05-16T13:45:11;12.63;;;6.40;;
11344;SDS011;5727;42.600;23.028;2023-05-16T13:47:38;17.00;;;6.63;;
11344;SDS011;5727;42.600;23.028;2023-05-16T13:50:06;10.50;;;5.40;;
11344;SDS011;5727;42.600;23.028;2023-05-16T13:52:34;13.37;;;6.13;;
11344;SDS011;5727;42.600;23.028;2023-05-16T13:55:01;11.47;;;5.37;;
11344;SDS011;5727;42.600;23.028;2023-05-16T13:57:28;10.63;;;5.20;;
11344;SDS011;5727;42.600;23.028;2023-05-16T13:59:55;20.13;;;8.83;;
11344;SDS011;5727;42.600;23.028;2023-05-16T14:02:23;13.67;;;6.83;;
11344;SDS011;5727;42.600;23.028;2023-05-16T14:04:51;10.77;;;5.23;;
11344;SDS011;5727;42.600;23.028;2023-05-16T14:07:18;10.63;;;4.90;;
11344;SDS011;5727;42.600;23.028;2023-05-16T14:09:45;10.17;;;5.23;;
11344;SDS011;5727;42.600;23.028;2023-05-16T14:12:12;9.93;;;5.70;;
11344;SDS011;5727;42.600;23.028;2023-05-16T14:14:38;13.97;;;5.57;;
11344;SDS011;5727;42.600;23.028;2023-05-16T14:17:05;13.03;;;5.63;;
11344;SDS011;5727;42.600;23.028;2023-05-16T14:19:33;12.70;;;5.53;;
11344;SDS011;5727;42.600;23.028;2023-05-16T14:22:01;9.90;;;5.07;;
11344;SDS011;5727;42.600;23.028;2023-05-16T14:24:28;11.77;;;4.93;;
11344;SDS011;5727;42.600;23.028;2023-05-16T14:26:54;10.60;;;4.53;;
11344;SDS011;5727;42.600;23.028;2023-05-16T14:29:21;8.53;;;4.90;;
11344;SDS011;5727;42.600;23.028;2023-05-16T14:31:48;9.77;;;4.97;;
11344;SDS011;5727;42.600;23.028;2023-05-16T14:34:15;12.10;;;4.73;;
11344;SDS011;5727;42.600;23.028;2023-05-16T14:36:43;10.37;;;4.77;;
11344;SDS011;5727;42.600;23.028;2023-05-16T14:39:09;12.60;;;5.00;;